sensor_id;sensor_type;location;lat;lon;timestamp;temperature;humidity
16102;DHT22;56411;52.964;10.540;2022-09-01T00:01:09;12.50;99.90
16102;DHT22;56411;52.964;10.540;2022-09-01T00:03:39;12.50;99.90
16102;DHT22;56411;52.964;10.540;2022-09-01T00:06:07;12.50;99.90
16102;DHT22;56411;52.964;10.540;2022-09-01T00:08:35;12.50;99.90
16102;DHT22;56411;52.964;10.540;2022-09-01T00:11:02;12.50;99.90
16102;DHT22;56411;52.964;10.540;2022-09-01T00:13:29;12.50;99.90
16102;DHT22;56411;52.964;10.540;2022-09-01T00:15:58;12.50;99.90
16102;DHT22;56411;52.964;10.540;2022-09-01T00:18:27;12.40;99.90
16102;DHT22;56411;52.964;10.540;2022-09-01T00:20:54;12.40;99.90
16102;DHT22;56411;52.964;10.540;2022-09-01T00:23:24;12.30;99.90
16102;DHT22;56411;52.964;10.540;2022-09-01T00:25:51;12.30;99.90
16102;DHT22;56411;52.964;10.540;2022-09-01T00:28:18;12.20;99.90
16102;DHT22;56411;52.964;10.540;2022-09-01T00:30:45;12.20;99.90
16102;DHT22;56411;52.964;10.540;2022-09-01T00:33:12;12.10;99.90
16102;DHT22;56411;52.964;10.540;2022-09-01T00:35:40;12.10;99.90
16102;DHT22;56411;52.964;10.540;2022-09-01T00:38:07;12.10;99.90
16102;DHT22;56411;52.964;10.540;2022-09-01T00:40:34;12.10;99.90
16102;DHT22;56411;52.964;10.540;2022-09-01T00:43:11;12.10;99.90
16102;DHT22;56411;52.964;10.540;2022-09-01T00:45:38;12.10;99.90
16102;DHT22;56411;52.964;10.540;2022-09-01T00:48:06;12.10;99.90
16102;DHT22;56411;52.964;10.540;2022-09-01T00:50:34;12.10;99.90
16102;DHT22;56411;52.964;10.540;2022-09-01T00:53:04;12.00;99.90
16102;DHT22;56411;52.964;10.540;2022-09-01T00:55:34;12.00;99.90
16102;DHT22;56411;52.964;10.540;2022-09-01T00:58:04;12.00;99.90
16102;DHT22;56411;52.964;10.540;2022-09-01T01:00:34;11.90;99.90
16102;DHT22;56411;52.964;10.540;2022-09-01T01:03:06;11.90;99.90
16102;DHT22;56411;52.964;10.540;2022-09-01T01:05:38;11.90;99.90
16102;DHT22;56411;52.964;10.540;2022-09-01T01:08:08;11.90;99.90
16102;DHT22;56411;52.964;10.540;2022-09-01T01:10:38;11.80;99.90
16102;DHT22;56411;52.964;10.540;2022-09-01T01:13:09;11.80;99.90
16102;DHT22;56411;52.964;10.540;2022-09-01T01:15:37;11.80;99.90
16102;DHT22;56411;52.964;10.540;2022-09-01T01:18:08;11.90;99.90
16102;DHT22;56411;52.964;10.540;2022-09-01T01:20:35;11.90;99.90
16102;DHT22;56411;52.964;10.540;2022-09-01T01:23:26;11.90;99.90
16102;DHT22;56411;52.964;10.540;2022-09-01T01:25:59;11.90;99.90
16102;DHT22;56411;52.964;10.540;2022-09-01T01:28:28;11.90;99.90
16102;DHT22;56411;52.964;10.540;2022-09-01T01:30:58;11.90;99.90
16102;DHT22;56411;52.964;10.540;2022-09-01T01:33:29;11.90;99.90
16102;DHT22;56411;52.964;10.540;2022-09-01T01:35:57;11.90;99.90
16102;DHT22;56411;52.964;10.540;2022-09-01T01:38:25;11.90;99.90
16102;DHT22;56411;52.964;10.540;2022-09-01T01:40:52;11.90;99.90
16102;DHT22;56411;52.964;10.540;2022-09-01T01:43:22;11.90;99.90
16102;DHT22;56411;52.964;10.540;2022-09-01T01:45:51;11.90;99.90
16102;DHT22;56411;52.964;10.540;2022-09-01T01:48:19;11.90;99.90
16102;DHT22;56411;52.964;10.540;2022-09-01T01:50:49;11.90;99.90
16102;DHT22;56411;52.964;10.540;2022-09-01T01:53:16;11.80;99.90
16102;DHT22;56411;52.964;10.540;2022-09-01T01:55:56;11.80;99.90
16102;DHT22;56411;52.964;10.540;2022-09-01T01:58:26;11.70;99.90
16102;DHT22;56411;52.964;10.540;2022-09-01T02:00:55;11.70;99.90
16102;DHT22;56411;52.964;10.540;2022-09-01T02:03:25;11.70;99.90
16102;DHT22;56411;52.964;10.540;2022-09-01T02:05:55;11.70;99.90
16102;DHT22;56411;52.964;10.540;2022-09-01T02:08:23;11.80;99.90
16102;DHT22;56411;52.964;10.540;2022-09-01T02:10:52;11.80;99.90
16102;DHT22;56411;52.964;10.540;2022-09-01T02:13:23;11.80;99.90
16102;DHT22;56411;52.964;10.540;2022-09-01T02:15:58;11.80;99.90
16102;DHT22;56411;52.964;10.540;2022-09-01T02:18:28;11.80;99.90
16102;DHT22;56411;52.964;10.540;2022-09-01T02:20:58;11.70;99.90
16102;DHT22;56411;52.964;10.540;2022-09-01T02:23:25;11.60;99.90
16102;DHT22;56411;52.964;10.540;2022-09-01T02:25:55;11.60;99.90
16102;DHT22;56411;52.964;10.540;2022-09-01T02:28:23;11.50;99.90
16102;DHT22;56411;52.964;10.540;2022-09-01T02:30:52;11.40;99.90
16102;DHT22;56411;52.964;10.540;2022-09-01T02:33:22;11.40;99.90
16102;DHT22;56411;52.964;10.540;2022-09-01T02:35:52;11.40;99.90
16102;DHT22;56411;52.964;10.540;2022-09-01T02:38:19;11.40;99.90
16102;DHT22;56411;52.964;10.540;2022-09-01T02:40:51;11.40;99.90
16102;DHT22;56411;52.964;10.540;2022-09-01T02:43:19;11.50;99.90
16102;DHT22;56411;52.964;10.540;2022-09-01T02:45:47;11.50;99.90
16102;DHT22;56411;52.964;10.540;2022-09-01T02:48:18;11.50;99.90
16102;DHT22;56411;52.964;10.540;2022-09-01T02:50:50;11.40;99.90
16102;DHT22;56411;52.964;10.540;2022-09-01T02:53:17;11.30;99.90
16102;DHT22;56411;52.964;10.540;2022-09-01T02:55:45;11.30;99.90
16102;DHT22;56411;52.964;10.540;2022-09-01T02:58:12;11.20;99.90
16102;DHT22;56411;52.964;10.540;2022-09-01T03:00:43;11.20;99.90
16102;DHT22;56411;52.964;10.540;2022-09-01T03:03:11;11.10;99.90
16102;DHT22;56411;52.964;10.540;2022-09-01T03:05:42;11.00;99.90
16102;DHT22;56411;52.964;10.540;2022-09-01T03:08:11;11.00;99.90
16102;DHT22;56411;52.964;10.540;2022-09-01T03:10:41;10.90;99.90
16102;DHT22;56411;52.964;10.540;2022-09-01T03:13:11;10.90;99.90
16102;DHT22;56411;52.964;10.540;2022-09-01T03:15:39;10.80;99.90
16102;DHT22;56411;52.964;10.540;2022-09-01T03:18:08;10.80;99.90
16102;DHT22;56411;52.964;10.540;2022-09-01T03:20:36;10.80;99.90
16102;DHT22;56411;52.964;10.540;2022-09-01T03:23:06;10.80;99.90
16102;DHT22;56411;52.964;10.540;2022-09-01T03:25:35;10.70;99.90
16102;DHT22;56411;52.964;10.540;2022-09-01T03:28:03;10.70;99.90
16102;DHT22;56411;52.964;10.540;2022-09-01T03:30:33;10.70;99.90
16102;DHT22;56411;52.964;10.540;2022-09-01T03:33:01;10.70;99.90
16102;DHT22;56411;52.964;10.540;2022-09-01T03:35:29;10.70;99.90
16102;DHT22;56411;52.964;10.540;2022-09-01T03:37:57;10.80;99.90
16102;DHT22;56411;52.964;10.540;2022-09-01T03:40:25;10.80;99.90
16102;DHT22;56411;52.964;10.540;2022-09-01T03:42:55;10.80;99.90
16102;DHT22;56411;52.964;10.540;2022-09-01T03:45:22;10.70;99.90
16102;DHT22;56411;52.964;10.540;2022-09-01T03:47:51;10.80;99.90
16102;DHT22;56411;52.964;10.540;2022-09-01T03:50:22;10.70;99.90
16102;DHT22;56411;52.964;10.540;2022-09-01T03:52:53;10.70;99.90
16102;DHT22;56411;52.964;10.540;2022-09-01T03:55:23;10.70;99.90
16102;DHT22;56411;52.964;10.540;2022-09-01T03:57:53;10.80;99.90
16102;DHT22;56411;52.964;10.540;2022-09-01T04:00:24;10.80;99.90
16102;DHT22;56411;52.964;10.540;2022-09-01T04:02:56;10.70;99.90
16102;DHT22;56411;52.964;10.540;2022-09-01T04:05:24;10.70;99.90
16102;DHT22;56411;52.964;10.540;2022-09-01T04:07:55;10.70;99.90
16102;DHT22;56411;52.964;10.540;2022-09-01T04:10:23;10.70;99.90
16102;DHT22;56411;52.964;10.540;2022-09-01T04:12:50;10.60;99.90
16102;DHT22;56411;52.964;10.540;2022-09-01T04:15:17;10.60;99.90
16102;DHT22;56411;52.964;10.540;2022-09-01T04:17:45;10.60;99.90
16102;DHT22;56411;52.964;10.540;2022-09-01T04:20:34;10.60;99.90
16102;DHT22;56411;52.964;10.540;2022-09-01T04:23:13;10.60;99.90
16102;DHT22;56411;52.964;10.540;2022-09-01T04:25:41;10.50;99.90
16102;DHT22;56411;52.964;10.540;2022-09-01T04:28:08;10.50;99.90
16102;DHT22;56411;52.964;10.540;2022-09-01T04:30:42;10.50;99.90
16102;DHT22;56411;52.964;10.540;2022-09-01T04:33:10;10.50;99.90
16102;DHT22;56411;52.964;10.540;2022-09-01T04:35:37;10.50;99.90
16102;DHT22;56411;52.964;10.540;2022-09-01T04:38:04;10.40;99.90
16102;DHT22;56411;52.964;10.540;2022-09-01T04:40:35;10.40;99.90
16102;DHT22;56411;52.964;10.540;2022-09-01T04:43:03;10.40;99.90
16102;DHT22;56411;52.964;10.540;2022-09-01T04:45:30;10.40;99.90
16102;DHT22;56411;52.964;10.540;2022-09-01T04:47:59;10.40;99.90
16102;DHT22;56411;52.964;10.540;2022-09-01T04:50:28;10.40;99.90
16102;DHT22;56411;52.964;10.540;2022-09-01T04:52:58;10.40;99.90
16102;DHT22;56411;52.964;10.540;2022-09-01T04:55:26;10.40;99.90
16102;DHT22;56411;52.964;10.540;2022-09-01T04:57:55;10.50;99.90
16102;DHT22;56411;52.964;10.540;2022-09-01T05:00:24;10.50;99.90
16102;DHT22;56411;52.964;10.540;2022-09-01T05:02:58;10.50;99.90
16102;DHT22;56411;52.964;10.540;2022-09-01T05:05:35;10.60;99.90
16102;DHT22;56411;52.964;10.540;2022-09-01T05:08:04;10.60;99.90
16102;DHT22;56411;52.964;10.540;2022-09-01T05:10:31;10.70;99.90
16102;DHT22;56411;52.964;10.540;2022-09-01T05:13:02;10.70;99.90
16102;DHT22;56411;52.964;10.540;2022-09-01T05:15:35;10.70;99.90
16102;DHT22;56411;52.964;10.540;2022-09-01T05:18:02;10.80;99.90
16102;DHT22;56411;52.964;10.540;2022-09-01T05:20:37;10.80;99.90
16102;DHT22;56411;52.964;10.540;2022-09-01T05:23:08;10.90;99.90
16102;DHT22;56411;52.964;10.540;2022-09-01T05:25:38;10.90;99.90
16102;DHT22;56411;52.964;10.540;2022-09-01T05:28:07;10.90;99.90
16102;DHT22;56411;52.964;10.540;2022-09-01T05:30:36;10.90;99.90
16102;DHT22;56411;52.964;10.540;2022-09-01T05:33:05;11.00;99.90
16102;DHT22;56411;52.964;10.540;2022-09-01T05:35:38;11.00;99.90
16102;DHT22;56411;52.964;10.540;2022-09-01T05:38:11;11.10;99.90
16102;DHT22;56411;52.964;10.540;2022-09-01T05:40:40;11.10;99.90
16102;DHT22;56411;52.964;10.540;2022-09-01T05:43:09;11.10;99.90
16102;DHT22;56411;52.964;10.540;2022-09-01T05:45:38;11.10;99.90
16102;DHT22;56411;52.964;10.540;2022-09-01T05:48:09;11.30;99.90
16102;DHT22;56411;52.964;10.540;2022-09-01T05:50:40;11.40;99.90
16102;DHT22;56411;52.964;10.540;2022-09-01T05:53:08;11.40;99.90
16102;DHT22;56411;52.964;10.540;2022-09-01T05:55:41;11.50;99.90
16102;DHT22;56411;52.964;10.540;2022-09-01T05:58:10;11.60;99.90
16102;DHT22;56411;52.964;10.540;2022-09-01T06:00:39;11.80;99.90
16102;DHT22;56411;52.964;10.540;2022-09-01T06:03:07;11.90;99.90
16102;DHT22;56411;52.964;10.540;2022-09-01T06:05:36;12.00;99.90
16102;DHT22;56411;52.964;10.540;2022-09-01T06:08:05;12.10;99.90
16102;DHT22;56411;52.964;10.540;2022-09-01T06:10:35;12.20;99.90
16102;DHT22;56411;52.964;10.540;2022-09-01T06:13:05;12.30;99.90
16102;DHT22;56411;52.964;10.540;2022-09-01T06:15:33;12.40;99.90
16102;DHT22;56411;52.964;10.540;2022-09-01T06:18:03;12.50;99.90
16102;DHT22;56411;52.964;10.540;2022-09-01T06:20:31;12.60;99.90
16102;DHT22;56411;52.964;10.540;2022-09-01T06:22:58;12.70;99.90
16102;DHT22;56411;52.964;10.540;2022-09-01T06:25:28;12.70;99.90
16102;DHT22;56411;52.964;10.540;2022-09-01T06:27:56;12.90;99.90
16102;DHT22;56411;52.964;10.540;2022-09-01T06:30:23;12.90;99.90
16102;DHT22;56411;52.964;10.540;2022-09-01T06:32:51;13.00;99.90
16102;DHT22;56411;52.964;10.540;2022-09-01T06:35:19;13.10;99.90
16102;DHT22;56411;52.964;10.540;2022-09-01T06:37:46;13.20;99.90
16102;DHT22;56411;52.964;10.540;2022-09-01T06:40:14;13.20;99.90
16102;DHT22;56411;52.964;10.540;2022-09-01T06:42:45;13.30;99.90
16102;DHT22;56411;52.964;10.540;2022-09-01T06:45:14;13.40;99.90
16102;DHT22;56411;52.964;10.540;2022-09-01T06:47:43;13.50;99.90
16102;DHT22;56411;52.964;10.540;2022-09-01T06:50:12;13.60;99.90
16102;DHT22;56411;52.964;10.540;2022-09-01T06:52:40;13.70;99.90
16102;DHT22;56411;52.964;10.540;2022-09-01T06:55:08;13.80;99.90
16102;DHT22;56411;52.964;10.540;2022-09-01T06:57:35;13.90;99.90
16102;DHT22;56411;52.964;10.540;2022-09-01T07:00:06;13.90;99.90
16102;DHT22;56411;52.964;10.540;2022-09-01T07:02:43;14.00;99.90
16102;DHT22;56411;52.964;10.540;2022-09-01T07:05:10;14.20;99.90
16102;DHT22;56411;52.964;10.540;2022-09-01T07:07:46;14.20;99.90
16102;DHT22;56411;52.964;10.540;2022-09-01T07:10:16;14.30;99.90
16102;DHT22;56411;52.964;10.540;2022-09-01T07:12:47;14.50;99.90
16102;DHT22;56411;52.964;10.540;2022-09-01T07:15:16;14.50;99.90
16102;DHT22;56411;52.964;10.540;2022-09-01T07:17:49;14.70;99.90
16102;DHT22;56411;52.964;10.540;2022-09-01T07:20:17;14.80;99.90
16102;DHT22;56411;52.964;10.540;2022-09-01T07:22:45;14.80;99.90
16102;DHT22;56411;52.964;10.540;2022-09-01T07:25:13;14.90;99.90
16102;DHT22;56411;52.964;10.540;2022-09-01T07:27:40;15.00;99.90
16102;DHT22;56411;52.964;10.540;2022-09-01T07:30:14;15.10;99.90
16102;DHT22;56411;52.964;10.540;2022-09-01T07:32:43;15.20;99.90
16102;DHT22;56411;52.964;10.540;2022-09-01T07:35:11;15.30;99.90
16102;DHT22;56411;52.964;10.540;2022-09-01T07:37:38;15.40;99.90
16102;DHT22;56411;52.964;10.540;2022-09-01T07:40:07;15.60;99.90
16102;DHT22;56411;52.964;10.540;2022-09-01T07:42:35;15.70;99.90
16102;DHT22;56411;52.964;10.540;2022-09-01T07:45:06;15.80;99.90
16102;DHT22;56411;52.964;10.540;2022-09-01T07:47:34;15.90;99.90
16102;DHT22;56411;52.964;10.540;2022-09-01T07:50:04;16.10;99.90
16102;DHT22;56411;52.964;10.540;2022-09-01T07:52:33;16.10;99.90
16102;DHT22;56411;52.964;10.540;2022-09-01T07:55:01;16.20;99.90
16102;DHT22;56411;52.964;10.540;2022-09-01T07:57:28;16.30;99.90
16102;DHT22;56411;52.964;10.540;2022-09-01T07:59:56;16.40;99.90
16102;DHT22;56411;52.964;10.540;2022-09-01T08:02:23;16.50;99.90
16102;DHT22;56411;52.964;10.540;2022-09-01T08:04:52;16.50;99.90
16102;DHT22;56411;52.964;10.540;2022-09-01T08:07:21;16.60;99.90
16102;DHT22;56411;52.964;10.540;2022-09-01T08:09:48;16.70;99.90
16102;DHT22;56411;52.964;10.540;2022-09-01T08:12:15;16.80;99.90
16102;DHT22;56411;52.964;10.540;2022-09-01T08:14:42;16.80;99.90
16102;DHT22;56411;52.964;10.540;2022-09-01T08:17:10;16.90;99.90
16102;DHT22;56411;52.964;10.540;2022-09-01T08:19:37;17.10;99.90
16102;DHT22;56411;52.964;10.540;2022-09-01T08:22:04;17.20;99.90
16102;DHT22;56411;52.964;10.540;2022-09-01T08:24:32;17.20;99.90
16102;DHT22;56411;52.964;10.540;2022-09-01T08:26:59;17.30;99.90
16102;DHT22;56411;52.964;10.540;2022-09-01T08:29:26;17.20;99.90
16102;DHT22;56411;52.964;10.540;2022-09-01T08:31:53;17.30;99.90
16102;DHT22;56411;52.964;10.540;2022-09-01T08:34:19;17.30;99.90
16102;DHT22;56411;52.964;10.540;2022-09-01T08:36:46;17.40;99.90
16102;DHT22;56411;52.964;10.540;2022-09-01T08:39:13;17.40;99.90
16102;DHT22;56411;52.964;10.540;2022-09-01T08:41:44;17.40;99.90
16102;DHT22;56411;52.964;10.540;2022-09-01T08:44:20;17.50;99.90
16102;DHT22;56411;52.964;10.540;2022-09-01T08:46:56;17.60;99.90
16102;DHT22;56411;52.964;10.540;2022-09-01T08:49:25;17.70;99.90
16102;DHT22;56411;52.964;10.540;2022-09-01T08:51:57;17.80;99.90
16102;DHT22;56411;52.964;10.540;2022-09-01T08:54:31;17.80;99.90
16102;DHT22;56411;52.964;10.540;2022-09-01T08:57:04;17.80;99.90
16102;DHT22;56411;52.964;10.540;2022-09-01T08:59:31;17.90;99.90
16102;DHT22;56411;52.964;10.540;2022-09-01T09:02:06;18.00;99.90
16102;DHT22;56411;52.964;10.540;2022-09-01T09:04:49;18.10;99.90
16102;DHT22;56411;52.964;10.540;2022-09-01T09:07:28;18.20;99.90
16102;DHT22;56411;52.964;10.540;2022-09-01T09:10:11;18.30;99.90
16102;DHT22;56411;52.964;10.540;2022-09-01T09:13:02;18.30;99.90
16102;DHT22;56411;52.964;10.540;2022-09-01T09:15:37;18.50;99.90
16102;DHT22;56411;52.964;10.540;2022-09-01T09:18:15;18.50;99.90
16102;DHT22;56411;52.964;10.540;2022-09-01T09:20:43;18.50;99.90
16102;DHT22;56411;52.964;10.540;2022-09-01T09:23:17;18.60;99.90
16102;DHT22;56411;52.964;10.540;2022-09-01T09:25:47;18.70;99.90
16102;DHT22;56411;52.964;10.540;2022-09-01T09:28:16;18.70;99.90
16102;DHT22;56411;52.964;10.540;2022-09-01T09:30:43;18.70;99.90
16102;DHT22;56411;52.964;10.540;2022-09-01T09:33:36;18.70;99.90
16102;DHT22;56411;52.964;10.540;2022-09-01T09:36:16;18.80;99.90
16102;DHT22;56411;52.964;10.540;2022-09-01T09:38:45;19.00;99.90
16102;DHT22;56411;52.964;10.540;2022-09-01T09:41:16;19.20;99.90
16102;DHT22;56411;52.964;10.540;2022-09-01T09:43:46;19.30;99.90
16102;DHT22;56411;52.964;10.540;2022-09-01T09:46:23;19.40;99.90
16102;DHT22;56411;52.964;10.540;2022-09-01T09:49:11;19.60;99.90
16102;DHT22;56411;52.964;10.540;2022-09-01T09:51:41;19.70;99.90
16102;DHT22;56411;52.964;10.540;2022-09-01T09:54:14;19.80;99.90
16102;DHT22;56411;52.964;10.540;2022-09-01T09:56:42;19.90;99.90
16102;DHT22;56411;52.964;10.540;2022-09-01T09:59:20;20.00;99.90
16102;DHT22;56411;52.964;10.540;2022-09-01T10:01:48;20.10;99.90
16102;DHT22;56411;52.964;10.540;2022-09-01T10:04:32;20.20;99.90
16102;DHT22;56411;52.964;10.540;2022-09-01T10:06:59;20.30;99.90
16102;DHT22;56411;52.964;10.540;2022-09-01T10:09:35;20.20;99.90
16102;DHT22;56411;52.964;10.540;2022-09-01T10:12:04;20.20;99.90
16102;DHT22;56411;52.964;10.540;2022-09-01T10:14:37;20.40;99.90
16102;DHT22;56411;52.964;10.540;2022-09-01T10:17:11;20.30;99.90
16102;DHT22;56411;52.964;10.540;2022-09-01T10:19:47;20.30;99.90
16102;DHT22;56411;52.964;10.540;2022-09-01T10:22:14;20.40;99.90
16102;DHT22;56411;52.964;10.540;2022-09-01T10:24:42;20.20;99.90
16102;DHT22;56411;52.964;10.540;2022-09-01T10:27:15;20.10;99.90
16102;DHT22;56411;52.964;10.540;2022-09-01T10:29:46;20.40;99.90
16102;DHT22;56411;52.964;10.540;2022-09-01T10:32:19;20.70;99.90
16102;DHT22;56411;52.964;10.540;2022-09-01T10:34:48;21.00;99.90
16102;DHT22;56411;52.964;10.540;2022-09-01T10:37:15;21.30;99.90
16102;DHT22;56411;52.964;10.540;2022-09-01T10:40:12;21.30;99.90
16102;DHT22;56411;52.964;10.540;2022-09-01T10:42:40;21.10;99.90
16102;DHT22;56411;52.964;10.540;2022-09-01T10:45:17;20.90;99.90
16102;DHT22;56411;52.964;10.540;2022-09-01T10:47:45;21.30;99.90
16102;DHT22;56411;52.964;10.540;2022-09-01T10:50:29;22.00;99.90
16102;DHT22;56411;52.964;10.540;2022-09-01T10:52:59;22.50;99.90
16102;DHT22;56411;52.964;10.540;2022-09-01T10:58:45;23.50;99.90
16102;DHT22;56411;52.964;10.540;2022-09-01T11:01:15;24.10;99.90
16102;DHT22;56411;52.964;10.540;2022-09-01T11:04:00;24.20;99.90
16102;DHT22;56411;52.964;10.540;2022-09-01T11:09:22;24.60;99.90
16102;DHT22;56411;52.964;10.540;2022-09-01T11:14:53;25.10;99.90
16102;DHT22;56411;52.964;10.540;2022-09-01T11:17:23;24.40;99.90
16102;DHT22;56411;52.964;10.540;2022-09-01T11:19:56;23.70;99.90
16102;DHT22;56411;52.964;10.540;2022-09-01T11:22:33;23.50;99.90
16102;DHT22;56411;52.964;10.540;2022-09-01T11:25:11;23.80;99.90
16102;DHT22;56411;52.964;10.540;2022-09-01T11:30:51;25.20;98.60
16102;DHT22;56411;52.964;10.540;2022-09-01T11:33:48;25.70;96.90
16102;DHT22;56411;52.964;10.540;2022-09-01T11:36:25;26.30;96.10
16102;DHT22;56411;52.964;10.540;2022-09-01T11:39:03;26.60;96.20
16102;DHT22;56411;52.964;10.540;2022-09-01T11:41:34;26.90;95.70
16102;DHT22;56411;52.964;10.540;2022-09-01T11:44:12;26.90;94.50
16102;DHT22;56411;52.964;10.540;2022-09-01T11:46:40;26.40;94.50
16102;DHT22;56411;52.964;10.540;2022-09-01T11:49:26;25.80;95.40
16102;DHT22;56411;52.964;10.540;2022-09-01T11:51:54;24.80;96.40
16102;DHT22;56411;52.964;10.540;2022-09-01T11:54:23;23.90;97.30
16102;DHT22;56411;52.964;10.540;2022-09-01T11:56:51;23.60;98.70
16102;DHT22;56411;52.964;10.540;2022-09-01T11:59:35;24.50;97.20
16102;DHT22;56411;52.964;10.540;2022-09-01T12:02:02;25.60;96.20
16102;DHT22;56411;52.964;10.540;2022-09-01T12:04:32;26.20;94.70
16102;DHT22;56411;52.964;10.540;2022-09-01T12:07:03;26.40;94.80
16102;DHT22;56411;52.964;10.540;2022-09-01T12:09:37;26.40;94.20
16102;DHT22;56411;52.964;10.540;2022-09-01T12:12:07;26.70;93.10
16102;DHT22;56411;52.964;10.540;2022-09-01T12:14:34;27.00;93.00
16102;DHT22;56411;52.964;10.540;2022-09-01T12:17:03;27.70;92.70
16102;DHT22;56411;52.964;10.540;2022-09-01T12:19:33;27.80;91.20
16102;DHT22;56411;52.964;10.540;2022-09-01T12:22:11;28.30;91.30
16102;DHT22;56411;52.964;10.540;2022-09-01T12:24:44;28.80;91.10
16102;DHT22;56411;52.964;10.540;2022-09-01T12:27:12;29.40;90.30
16102;DHT22;56411;52.964;10.540;2022-09-01T12:29:39;28.70;89.30
16102;DHT22;56411;52.964;10.540;2022-09-01T12:32:07;27.20;90.50
16102;DHT22;56411;52.964;10.540;2022-09-01T12:34:38;26.30;91.70
16102;DHT22;56411;52.964;10.540;2022-09-01T12:37:11;25.60;92.20
16102;DHT22;56411;52.964;10.540;2022-09-01T12:39:47;24.70;93.00
16102;DHT22;56411;52.964;10.540;2022-09-01T12:42:25;24.40;94.10
16102;DHT22;56411;52.964;10.540;2022-09-01T12:44:53;24.10;93.60
16102;DHT22;56411;52.964;10.540;2022-09-01T12:47:44;24.50;94.00
16102;DHT22;56411;52.964;10.540;2022-09-01T12:53:22;26.70;91.20
16102;DHT22;56411;52.964;10.540;2022-09-01T12:56:22;27.70;90.40
16102;DHT22;56411;52.964;10.540;2022-09-01T12:59:07;27.90;90.00
16102;DHT22;56411;52.964;10.540;2022-09-01T13:01:35;28.20;88.30
16102;DHT22;56411;52.964;10.540;2022-09-01T13:04:11;28.80;86.70
16102;DHT22;56411;52.964;10.540;2022-09-01T13:06:38;29.40;86.20
16102;DHT22;56411;52.964;10.540;2022-09-01T13:09:05;30.20;85.50
16102;DHT22;56411;52.964;10.540;2022-09-01T13:11:34;30.10;82.70
16102;DHT22;56411;52.964;10.540;2022-09-01T13:14:02;29.50;83.00
16102;DHT22;56411;52.964;10.540;2022-09-01T13:16:29;27.90;83.60
16102;DHT22;56411;52.964;10.540;2022-09-01T13:18:56;27.20;85.00
16102;DHT22;56411;52.964;10.540;2022-09-01T13:21:23;27.40;84.60
16102;DHT22;56411;52.964;10.540;2022-09-01T13:23:50;28.00;84.10
16102;DHT22;56411;52.964;10.540;2022-09-01T13:26:16;28.50;83.30
16102;DHT22;56411;52.964;10.540;2022-09-01T13:28:45;28.80;81.60
16102;DHT22;56411;52.964;10.540;2022-09-01T13:31:12;29.40;81.30
16102;DHT22;56411;52.964;10.540;2022-09-01T13:33:39;30.00;80.00
16102;DHT22;56411;52.964;10.540;2022-09-01T13:36:06;30.80;77.90
16102;DHT22;56411;52.964;10.540;2022-09-01T13:38:33;31.30;76.40
16102;DHT22;56411;52.964;10.540;2022-09-01T13:41:00;30.90;76.40
16102;DHT22;56411;52.964;10.540;2022-09-01T13:43:27;30.60;75.40
16102;DHT22;56411;52.964;10.540;2022-09-01T13:45:57;30.20;75.00
16102;DHT22;56411;52.964;10.540;2022-09-01T13:48:24;30.70;74.70
16102;DHT22;56411;52.964;10.540;2022-09-01T13:50:53;31.00;76.30
16102;DHT22;56411;52.964;10.540;2022-09-01T13:53:21;31.80;73.60
16102;DHT22;56411;52.964;10.540;2022-09-01T13:55:48;32.40;73.50
16102;DHT22;56411;52.964;10.540;2022-09-01T13:58:15;31.80;73.80
16102;DHT22;56411;52.964;10.540;2022-09-01T14:00:44;30.90;75.30
16102;DHT22;56411;52.964;10.540;2022-09-01T14:03:15;30.10;76.10
16102;DHT22;56411;52.964;10.540;2022-09-01T14:05:45;29.10;77.10
16102;DHT22;56411;52.964;10.540;2022-09-01T14:08:14;27.90;79.40
16102;DHT22;56411;52.964;10.540;2022-09-01T14:10:43;27.00;80.80
16102;DHT22;56411;52.964;10.540;2022-09-01T14:13:11;26.60;81.70
16102;DHT22;56411;52.964;10.540;2022-09-01T14:15:38;27.00;80.90
16102;DHT22;56411;52.964;10.540;2022-09-01T14:18:05;28.00;78.60
16102;DHT22;56411;52.964;10.540;2022-09-01T14:20:36;28.70;77.60
16102;DHT22;56411;52.964;10.540;2022-09-01T14:23:06;29.40;76.80
16102;DHT22;56411;52.964;10.540;2022-09-01T14:25:33;29.90;77.20
16102;DHT22;56411;52.964;10.540;2022-09-01T14:28:02;30.40;76.10
16102;DHT22;56411;52.964;10.540;2022-09-01T14:30:31;31.30;75.70
16102;DHT22;56411;52.964;10.540;2022-09-01T14:32:59;32.60;73.80
16102;DHT22;56411;52.964;10.540;2022-09-01T14:35:26;33.20;72.00
16102;DHT22;56411;52.964;10.540;2022-09-01T14:37:56;33.30;71.30
16102;DHT22;56411;52.964;10.540;2022-09-01T14:40:23;33.10;70.00
16102;DHT22;56411;52.964;10.540;2022-09-01T14:42:53;32.50;70.20
16102;DHT22;56411;52.964;10.540;2022-09-01T14:45:22;31.30;71.30
16102;DHT22;56411;52.964;10.540;2022-09-01T14:47:51;29.50;73.50
16102;DHT22;56411;52.964;10.540;2022-09-01T14:50:19;28.60;74.80
16102;DHT22;56411;52.964;10.540;2022-09-01T14:52:47;27.60;77.30
16102;DHT22;56411;52.964;10.540;2022-09-01T14:55:16;26.60;79.70
16102;DHT22;56411;52.964;10.540;2022-09-01T14:57:43;25.80;81.50
16102;DHT22;56411;52.964;10.540;2022-09-01T15:00:11;25.30;84.20
16102;DHT22;56411;52.964;10.540;2022-09-01T15:02:39;24.80;85.50
16102;DHT22;56411;52.964;10.540;2022-09-01T15:05:07;24.20;87.50
16102;DHT22;56411;52.964;10.540;2022-09-01T15:07:35;23.80;89.00
16102;DHT22;56411;52.964;10.540;2022-09-01T15:10:03;23.40;89.80
16102;DHT22;56411;52.964;10.540;2022-09-01T15:12:32;23.20;90.30
16102;DHT22;56411;52.964;10.540;2022-09-01T15:14:59;23.00;90.20
16102;DHT22;56411;52.964;10.540;2022-09-01T15:17:27;23.10;90.50
16102;DHT22;56411;52.964;10.540;2022-09-01T15:19:54;23.00;90.70
16102;DHT22;56411;52.964;10.540;2022-09-01T15:22:41;23.20;91.20
16102;DHT22;56411;52.964;10.540;2022-09-01T15:25:08;24.50;91.00
16102;DHT22;56411;52.964;10.540;2022-09-01T15:27:36;25.70;88.90
16102;DHT22;56411;52.964;10.540;2022-09-01T15:30:04;26.50;86.70
16102;DHT22;56411;52.964;10.540;2022-09-01T15:32:39;27.20;85.90
16102;DHT22;56411;52.964;10.540;2022-09-01T15:35:06;28.20;85.10
16102;DHT22;56411;52.964;10.540;2022-09-01T15:37:34;28.70;83.60
16102;DHT22;56411;52.964;10.540;2022-09-01T15:40:01;28.70;83.50
16102;DHT22;56411;52.964;10.540;2022-09-01T15:42:28;28.40;82.80
16102;DHT22;56411;52.964;10.540;2022-09-01T15:44:57;28.70;83.30
16102;DHT22;56411;52.964;10.540;2022-09-01T15:47:24;29.10;81.20
16102;DHT22;56411;52.964;10.540;2022-09-01T15:49:51;28.90;80.10